Charlotte Douglas International Airport

KCLT · 北卡罗来纳州, 美国

罗盘
风向 的 风向 130° 夏洛特道格拉斯國際機場 5/23
风: 6 kt, 2 beaufort

1 kt

6 kt
改变
0 1.000 2.000 3.000 4.000 5.000
没有云
METAR KJQF 291750Z 13006KT 10SM CLR 16/04 A3023

METAR 夏洛特道格拉斯國際機場 - KCLT/CLT

夏洛特道格拉斯國際機場是,美国中的大型机场。 该机场有4条跑道: 5/23, 18C/36C, 36R/18L 和 36L/18R. 该领域的国际民航组织标志是KCLT 它的国际航空运输协会代码是CLT.

这份报告是针对2022年11月29日 12:50, 当地时间在Concord-Padgett Regional Airport进行的。

机场观察

风向为130°,速度为6 kt。

可见度为10 mi。

有没有云。 没有观察到天花板。

温度和风寒是16 °C。 露点为4 °C,相对湿度为45%。 海平面上的气压为30,23 inHg (QNH)。

白天

今天,太阳从07:12升起,在17:12降落。 这适用于夏洛特道格拉斯國際機場,世界夏令时可能有所不同。 当地时间与世界标准时间之间的时差为-5 小时。 当前,没有夏令时有效。

公司介绍

在这个机场,你可以找到飞行学校。 本场上唯一已知的公司是Carolina Flight Academy。

体会

到Vliegles.nl去找飞行课程,跳伞和其他飞行体验。 浏览页面,了解夏洛特道格拉斯國際機場附近所有可用的活动。 你也可以使用搜索功能来寻找你所在地附近的特定飞行课程、跳伞或其他飞行体验。

跑道

Id 标题 侧风 逆风 侧风 %
5/23 049°-229° 6 kt 99 %
18C/36C 183°-363° 5 kt 4 kt 80 %
36R/18L 000°-180° 5 kt 4 kt 77 %
36L/18R 000°-180° 5 kt 4 kt 77 %

逆风成分最大的方向会被突出显示,并用于横风计算。 这并不一定意味着这个方向在使用。

乌云

- CLR 没有云

温度 & 天气

温度 16 °C
露点 4 °C
相对湿度 45%
Kp-index 1 (0-9)

白天

日出
07:11
中午
12:11
日落
17:10 (3:46)

小工具

你想在你的网站上有一个关于夏洛特道格拉斯國際機場的当前航空天气(METAR)的小部件吗?

显示HTML代码

我们和第三方通过cookies跟踪您在我们网站上的互联网行为。如果你继续,我们认为你同意我们的饼干政策